sensor_id;sensor_type;location;lat;lon;timestamp;P1;durP1;ratioP1;P2;durP2;ratioP2
8401;SDS011;4238;48.404;9.498;2023-02-11T00:00:38;24.20;;;14.67;;
8401;SDS011;4238;48.404;9.498;2023-02-11T00:03:06;33.83;;;19.63;;
8401;SDS011;4238;48.404;9.498;2023-02-11T00:05:33;29.23;;;18.90;;
8401;SDS011;4238;48.404;9.498;2023-02-11T00:08:02;33.23;;;20.00;;
8401;SDS011;4238;48.404;9.498;2023-02-11T00:10:29;30.23;;;19.70;;
8401;SDS011;4238;48.404;9.498;2023-02-11T00:12:56;26.93;;;17.07;;
8401;SDS011;4238;48.404;9.498;2023-02-11T00:15:22;26.63;;;16.63;;
8401;SDS011;4238;48.404;9.498;2023-02-11T00:17:49;27.83;;;17.43;;
8401;SDS011;4238;48.404;9.498;2023-02-11T00:20:16;29.03;;;17.37;;
8401;SDS011;4238;48.404;9.498;2023-02-11T00:22:43;27.50;;;16.87;;
8401;SDS011;4238;48.404;9.498;2023-02-11T00:25:11;29.03;;;18.17;;
8401;SDS011;4238;48.404;9.498;2023-02-11T00:27:38;29.30;;;16.90;;
8401;SDS011;4238;48.404;9.498;2023-02-11T00:30:06;25.77;;;16.43;;
8401;SDS011;4238;48.404;9.498;2023-02-11T00:32:33;29.00;;;17.07;;
8401;SDS011;4238;48.404;9.498;2023-02-11T00:35:00;29.30;;;17.90;;
8401;SDS011;4238;48.404;9.498;2023-02-11T00:37:27;26.87;;;17.03;;
8401;SDS011;4238;48.404;9.498;2023-02-11T00:39:54;28.23;;;15.77;;
8401;SDS011;4238;48.404;9.498;2023-02-11T00:42:22;25.10;;;15.70;;
8401;SDS011;4238;48.404;9.498;2023-02-11T00:44:49;26.57;;;17.40;;
8401;SDS011;4238;48.404;9.498;2023-02-11T00:47:16;29.03;;;17.73;;
8401;SDS011;4238;48.404;9.498;2023-02-11T00:49:43;26.23;;;16.93;;
8401;SDS011;4238;48.404;9.498;2023-02-11T00:52:10;28.90;;;18.17;;
8401;SDS011;4238;48.404;9.498;2023-02-11T00:54:37;26.93;;;17.70;;
8401;SDS011;4238;48.404;9.498;2023-02-11T00:57:04;27.43;;;16.70;;
8401;SDS011;4238;48.404;9.498;2023-02-11T00:59:32;32.77;;;18.57;;
8401;SDS011;4238;48.404;9.498;2023-02-11T01:01:59;31.97;;;18.27;;
8401;SDS011;4238;48.404;9.498;2023-02-11T01:04:26;29.73;;;19.07;;
8401;SDS011;4238;48.404;9.498;2023-02-11T01:06:53;29.20;;;17.87;;
8401;SDS011;4238;48.404;9.498;2023-02-11T01:09:19;26.17;;;17.03;;
8401;SDS011;4238;48.404;9.498;2023-02-11T01:11:46;30.27;;;18.33;;
8401;SDS011;4238;48.404;9.498;2023-02-11T01:14:13;20.93;;;15.90;;
8401;SDS011;4238;48.404;9.498;2023-02-11T01:16:41;25.90;;;14.77;;
8401;SDS011;4238;48.404;9.498;2023-02-11T01:19:08;23.20;;;13.53;;
8401;SDS011;4238;48.404;9.498;2023-02-11T01:21:35;19.17;;;13.20;;
8401;SDS011;4238;48.404;9.498;2023-02-11T01:24:02;21.07;;;13.33;;
8401;SDS011;4238;48.404;9.498;2023-02-11T01:26:29;20.90;;;13.63;;
8401;SDS011;4238;48.404;9.498;2023-02-11T01:28:56;25.47;;;14.10;;
8401;SDS011;4238;48.404;9.498;2023-02-11T01:31:24;19.63;;;13.00;;
8401;SDS011;4238;48.404;9.498;2023-02-11T01:33:53;21.23;;;12.43;;
8401;SDS011;4238;48.404;9.498;2023-02-11T01:36:20;20.50;;;13.83;;
8401;SDS011;4238;48.404;9.498;2023-02-11T01:38:46;26.03;;;15.80;;
8401;SDS011;4238;48.404;9.498;2023-02-11T01:41:14;22.87;;;14.57;;
8401;SDS011;4238;48.404;9.498;2023-02-11T01:43:41;20.57;;;14.80;;
8401;SDS011;4238;48.404;9.498;2023-02-11T01:46:28;23.27;;;15.53;;
8401;SDS011;4238;48.404;9.498;2023-02-11T01:49:00;22.60;;;12.90;;
8401;SDS011;4238;48.404;9.498;2023-02-11T01:51:32;26.00;;;15.47;;
8401;SDS011;4238;48.404;9.498;2023-02-11T01:54:03;26.93;;;15.30;;
8401;SDS011;4238;48.404;9.498;2023-02-11T01:56:49;23.40;;;15.00;;
8401;SDS011;4238;48.404;9.498;2023-02-11T01:59:37;23.23;;;14.70;;
8401;SDS011;4238;48.404;9.498;2023-02-11T02:02:07;25.90;;;15.63;;
8401;SDS011;4238;48.404;9.498;2023-02-11T02:04:41;26.10;;;15.30;;
8401;SDS011;4238;48.404;9.498;2023-02-11T02:07:13;26.73;;;16.67;;
8401;SDS011;4238;48.404;9.498;2023-02-11T02:09:50;28.43;;;17.37;;
8401;SDS011;4238;48.404;9.498;2023-02-11T02:12:21;29.53;;;16.43;;
8401;SDS011;4238;48.404;9.498;2023-02-11T02:14:48;31.83;;;17.07;;
8401;SDS011;4238;48.404;9.498;2023-02-11T02:17:17;28.07;;;17.07;;
8401;SDS011;4238;48.404;9.498;2023-02-11T02:22:51;29.27;;;16.97;;
8401;SDS011;4238;48.404;9.498;2023-02-11T02:25:47;30.43;;;17.63;;
8401;SDS011;4238;48.404;9.498;2023-02-11T02:28:51;31.73;;;18.40;;
8401;SDS011;4238;48.404;9.498;2023-02-11T02:31:40;30.83;;;17.20;;
8401;SDS011;4238;48.404;9.498;2023-02-11T02:34:20;27.40;;;16.40;;
8401;SDS011;4238;48.404;9.498;2023-02-11T02:36:56;28.30;;;16.90;;
8401;SDS011;4238;48.404;9.498;2023-02-11T02:39:30;25.00;;;17.20;;
8401;SDS011;4238;48.404;9.498;2023-02-11T02:42:00;25.57;;;16.40;;
8401;SDS011;4238;48.404;9.498;2023-02-11T02:44:28;26.50;;;16.17;;
8401;SDS011;4238;48.404;9.498;2023-02-11T02:46:56;23.23;;;15.37;;
8401;SDS011;4238;48.404;9.498;2023-02-11T02:49:24;25.43;;;15.43;;
8401;SDS011;4238;48.404;9.498;2023-02-11T02:51:57;23.70;;;14.43;;
8401;SDS011;4238;48.404;9.498;2023-02-11T02:54:41;22.73;;;13.97;;
8401;SDS011;4238;48.404;9.498;2023-02-11T02:57:30;23.73;;;15.57;;
8401;SDS011;4238;48.404;9.498;2023-02-11T03:00:07;21.77;;;13.77;;
8401;SDS011;4238;48.404;9.498;2023-02-11T03:02:45;23.63;;;15.07;;
8401;SDS011;4238;48.404;9.498;2023-02-11T03:05:25;24.63;;;14.93;;
8401;SDS011;4238;48.404;9.498;2023-02-11T03:07:59;21.30;;;13.77;;
8401;SDS011;4238;48.404;9.498;2023-02-11T03:10:33;24.37;;;15.67;;
8401;SDS011;4238;48.404;9.498;2023-02-11T03:13:03;26.10;;;14.17;;
8401;SDS011;4238;48.404;9.498;2023-02-11T03:15:33;22.47;;;14.90;;
8401;SDS011;4238;48.404;9.498;2023-02-11T03:18:03;21.77;;;13.63;;
8401;SDS011;4238;48.404;9.498;2023-02-11T03:20:35;22.07;;;14.30;;
8401;SDS011;4238;48.404;9.498;2023-02-11T03:23:09;22.27;;;14.70;;
8401;SDS011;4238;48.404;9.498;2023-02-11T03:25:40;25.00;;;15.47;;
8401;SDS011;4238;48.404;9.498;2023-02-11T03:28:12;21.00;;;14.57;;
8401;SDS011;4238;48.404;9.498;2023-02-11T03:30:44;19.67;;;13.77;;
8401;SDS011;4238;48.404;9.498;2023-02-11T03:33:16;27.60;;;15.23;;
8401;SDS011;4238;48.404;9.498;2023-02-11T03:35:49;21.37;;;14.10;;
8401;SDS011;4238;48.404;9.498;2023-02-11T03:38:21;24.07;;;14.17;;
8401;SDS011;4238;48.404;9.498;2023-02-11T03:40:53;21.50;;;13.47;;
8401;SDS011;4238;48.404;9.498;2023-02-11T03:43:22;25.13;;;14.67;;
8401;SDS011;4238;48.404;9.498;2023-02-11T03:45:53;21.10;;;13.87;;
8401;SDS011;4238;48.404;9.498;2023-02-11T03:48:22;22.70;;;14.03;;
8401;SDS011;4238;48.404;9.498;2023-02-11T03:50:53;23.27;;;16.30;;
8401;SDS011;4238;48.404;9.498;2023-02-11T03:53:21;22.30;;;14.07;;
8401;SDS011;4238;48.404;9.498;2023-02-11T03:55:49;25.47;;;15.50;;
8401;SDS011;4238;48.404;9.498;2023-02-11T03:58:17;24.50;;;15.43;;
8401;SDS011;4238;48.404;9.498;2023-02-11T04:00:44;22.43;;;14.90;;
8401;SDS011;4238;48.404;9.498;2023-02-11T04:03:12;26.00;;;15.97;;
8401;SDS011;4238;48.404;9.498;2023-02-11T04:05:39;23.17;;;15.13;;
8401;SDS011;4238;48.404;9.498;2023-02-11T04:08:07;25.07;;;16.20;;
8401;SDS011;4238;48.404;9.498;2023-02-11T04:10:34;24.97;;;16.63;;
8401;SDS011;4238;48.404;9.498;2023-02-11T04:13:01;25.73;;;16.77;;
8401;SDS011;4238;48.404;9.498;2023-02-11T04:15:28;23.20;;;16.13;;
8401;SDS011;4238;48.404;9.498;2023-02-11T04:17:55;25.87;;;17.30;;
8401;SDS011;4238;48.404;9.498;2023-02-11T04:20:22;28.23;;;16.73;;
8401;SDS011;4238;48.404;9.498;2023-02-11T04:22:49;25.03;;;17.33;;
8401;SDS011;4238;48.404;9.498;2023-02-11T04:25:17;27.70;;;17.00;;
8401;SDS011;4238;48.404;9.498;2023-02-11T04:27:44;30.23;;;17.37;;
8401;SDS011;4238;48.404;9.498;2023-02-11T04:30:11;25.33;;;15.00;;
8401;SDS011;4238;48.404;9.498;2023-02-11T04:32:39;20.97;;;15.50;;
8401;SDS011;4238;48.404;9.498;2023-02-11T04:35:06;24.33;;;15.60;;
8401;SDS011;4238;48.404;9.498;2023-02-11T04:37:33;27.17;;;15.00;;
8401;SDS011;4238;48.404;9.498;2023-02-11T04:40:00;25.43;;;15.07;;
8401;SDS011;4238;48.404;9.498;2023-02-11T04:42:29;23.37;;;14.57;;
8401;SDS011;4238;48.404;9.498;2023-02-11T04:44:55;23.27;;;15.10;;
8401;SDS011;4238;48.404;9.498;2023-02-11T04:47:22;27.73;;;15.83;;
8401;SDS011;4238;48.404;9.498;2023-02-11T04:49:49;25.20;;;16.63;;
8401;SDS011;4238;48.404;9.498;2023-02-11T04:52:16;25.83;;;16.90;;
8401;SDS011;4238;48.404;9.498;2023-02-11T04:54:43;26.40;;;15.87;;
8401;SDS011;4238;48.404;9.498;2023-02-11T04:57:12;26.03;;;17.57;;
8401;SDS011;4238;48.404;9.498;2023-02-11T04:59:40;26.17;;;15.20;;
8401;SDS011;4238;48.404;9.498;2023-02-11T05:02:07;23.30;;;15.17;;
8401;SDS011;4238;48.404;9.498;2023-02-11T05:04:34;22.10;;;15.40;;
8401;SDS011;4238;48.404;9.498;2023-02-11T05:07:01;26.27;;;16.63;;
8401;SDS011;4238;48.404;9.498;2023-02-11T05:09:28;25.17;;;16.00;;
8401;SDS011;4238;48.404;9.498;2023-02-11T05:11:54;24.67;;;16.20;;
8401;SDS011;4238;48.404;9.498;2023-02-11T05:14:21;25.90;;;16.93;;
8401;SDS011;4238;48.404;9.498;2023-02-11T05:16:50;26.33;;;16.43;;
8401;SDS011;4238;48.404;9.498;2023-02-11T05:19:17;25.03;;;17.00;;
8401;SDS011;4238;48.404;9.498;2023-02-11T05:21:43;28.43;;;17.23;;
8401;SDS011;4238;48.404;9.498;2023-02-11T05:24:10;23.60;;;15.67;;
8401;SDS011;4238;48.404;9.498;2023-02-11T05:26:37;26.70;;;16.33;;
8401;SDS011;4238;48.404;9.498;2023-02-11T05:29:04;24.07;;;15.70;;
8401;SDS011;4238;48.404;9.498;2023-02-11T05:31:31;25.47;;;17.23;;
8401;SDS011;4238;48.404;9.498;2023-02-11T05:33:59;23.73;;;15.60;;
8401;SDS011;4238;48.404;9.498;2023-02-11T05:36:28;24.23;;;16.50;;
8401;SDS011;4238;48.404;9.498;2023-02-11T05:38:55;26.90;;;16.57;;
8401;SDS011;4238;48.404;9.498;2023-02-11T05:41:22;23.93;;;16.27;;
8401;SDS011;4238;48.404;9.498;2023-02-11T05:43:49;24.83;;;15.33;;
8401;SDS011;4238;48.404;9.498;2023-02-11T05:46:16;26.90;;;16.00;;
8401;SDS011;4238;48.404;9.498;2023-02-11T05:48:43;21.83;;;16.07;;
8401;SDS011;4238;48.404;9.498;2023-02-11T05:51:11;29.40;;;16.90;;
8401;SDS011;4238;48.404;9.498;2023-02-11T05:53:38;26.33;;;16.10;;
8401;SDS011;4238;48.404;9.498;2023-02-11T05:56:05;25.83;;;16.97;;
8401;SDS011;4238;48.404;9.498;2023-02-11T05:58:32;27.83;;;17.90;;
8401;SDS011;4238;48.404;9.498;2023-02-11T06:00:59;24.07;;;15.23;;
8401;SDS011;4238;48.404;9.498;2023-02-11T06:03:26;22.93;;;16.00;;
8401;SDS011;4238;48.404;9.498;2023-02-11T06:05:53;23.83;;;15.20;;
8401;SDS011;4238;48.404;9.498;2023-02-11T06:08:21;23.40;;;14.97;;
8401;SDS011;4238;48.404;9.498;2023-02-11T06:10:48;21.67;;;14.73;;
8401;SDS011;4238;48.404;9.498;2023-02-11T06:13:15;21.63;;;15.27;;
8401;SDS011;4238;48.404;9.498;2023-02-11T06:15:43;25.87;;;17.07;;
8401;SDS011;4238;48.404;9.498;2023-02-11T06:18:10;25.93;;;16.43;;
8401;SDS011;4238;48.404;9.498;2023-02-11T06:20:37;26.90;;;16.17;;
8401;SDS011;4238;48.404;9.498;2023-02-11T06:23:05;23.23;;;16.13;;
8401;SDS011;4238;48.404;9.498;2023-02-11T06:25:34;21.50;;;15.37;;
8401;SDS011;4238;48.404;9.498;2023-02-11T06:28:01;22.77;;;15.67;;
8401;SDS011;4238;48.404;9.498;2023-02-11T06:30:28;25.47;;;16.63;;
8401;SDS011;4238;48.404;9.498;2023-02-11T06:32:54;24.43;;;15.87;;
8401;SDS011;4238;48.404;9.498;2023-02-11T06:35:21;32.30;;;18.37;;
8401;SDS011;4238;48.404;9.498;2023-02-11T06:37:49;27.40;;;18.13;;
8401;SDS011;4238;48.404;9.498;2023-02-11T06:40:18;29.30;;;19.47;;
8401;SDS011;4238;48.404;9.498;2023-02-11T06:42:46;31.73;;;20.20;;
8401;SDS011;4238;48.404;9.498;2023-02-11T06:45:13;29.50;;;19.87;;
8401;SDS011;4238;48.404;9.498;2023-02-11T06:47:40;44.90;;;25.77;;
8401;SDS011;4238;48.404;9.498;2023-02-11T06:50:08;57.10;;;32.20;;
8401;SDS011;4238;48.404;9.498;2023-02-11T06:52:37;50.97;;;29.67;;
8401;SDS011;4238;48.404;9.498;2023-02-11T06:55:05;36.17;;;21.77;;
8401;SDS011;4238;48.404;9.498;2023-02-11T06:57:32;34.03;;;21.13;;
8401;SDS011;4238;48.404;9.498;2023-02-11T07:00:00;33.93;;;21.23;;
8401;SDS011;4238;48.404;9.498;2023-02-11T07:02:27;33.40;;;20.93;;
8401;SDS011;4238;48.404;9.498;2023-02-11T07:04:54;29.33;;;20.43;;
8401;SDS011;4238;48.404;9.498;2023-02-11T07:07:20;29.67;;;19.93;;
8401;SDS011;4238;48.404;9.498;2023-02-11T07:09:47;29.63;;;20.80;;
8401;SDS011;4238;48.404;9.498;2023-02-11T07:12:14;35.80;;;24.87;;
8401;SDS011;4238;48.404;9.498;2023-02-11T07:14:41;38.23;;;25.30;;
8401;SDS011;4238;48.404;9.498;2023-02-11T07:17:09;37.00;;;23.73;;
8401;SDS011;4238;48.404;9.498;2023-02-11T07:19:36;40.30;;;23.23;;
8401;SDS011;4238;48.404;9.498;2023-02-11T07:22:03;37.63;;;21.67;;
8401;SDS011;4238;48.404;9.498;2023-02-11T07:24:30;37.10;;;22.40;;
8401;SDS011;4238;48.404;9.498;2023-02-11T07:26:57;27.53;;;19.07;;
8401;SDS011;4238;48.404;9.498;2023-02-11T07:29:24;32.60;;;20.40;;
8401;SDS011;4238;48.404;9.498;2023-02-11T07:31:51;25.97;;;16.10;;
8401;SDS011;4238;48.404;9.498;2023-02-11T07:34:19;26.40;;;17.50;;
8401;SDS011;4238;48.404;9.498;2023-02-11T07:36:46;24.60;;;15.53;;
8401;SDS011;4238;48.404;9.498;2023-02-11T07:39:14;23.40;;;15.63;;
8401;SDS011;4238;48.404;9.498;2023-02-11T07:41:41;22.03;;;16.13;;
8401;SDS011;4238;48.404;9.498;2023-02-11T07:44:08;26.97;;;17.07;;
8401;SDS011;4238;48.404;9.498;2023-02-11T07:46:35;28.70;;;19.93;;
8401;SDS011;4238;48.404;9.498;2023-02-11T07:49:06;27.07;;;17.63;;
8401;SDS011;4238;48.404;9.498;2023-02-11T07:51:35;31.77;;;19.27;;
8401;SDS011;4238;48.404;9.498;2023-02-11T07:54:02;28.07;;;19.77;;
8401;SDS011;4238;48.404;9.498;2023-02-11T07:56:29;24.07;;;18.17;;
8401;SDS011;4238;48.404;9.498;2023-02-11T07:58:58;24.73;;;17.73;;
8401;SDS011;4238;48.404;9.498;2023-02-11T08:01:27;24.73;;;17.60;;
8401;SDS011;4238;48.404;9.498;2023-02-11T08:03:54;27.77;;;17.43;;
8401;SDS011;4238;48.404;9.498;2023-02-11T08:06:23;21.10;;;16.33;;
8401;SDS011;4238;48.404;9.498;2023-02-11T08:08:52;22.53;;;15.47;;
8401;SDS011;4238;48.404;9.498;2023-02-11T08:11:20;22.13;;;15.40;;
8401;SDS011;4238;48.404;9.498;2023-02-11T08:13:50;25.63;;;17.23;;
8401;SDS011;4238;48.404;9.498;2023-02-11T08:16:18;26.90;;;19.27;;
8401;SDS011;4238;48.404;9.498;2023-02-11T08:18:46;30.33;;;21.73;;
8401;SDS011;4238;48.404;9.498;2023-02-11T08:21:14;29.42;;;24.42;;
8401;SDS011;4238;48.404;9.498;2023-02-11T08:23:41;26.43;;;21.43;;
8401;SDS011;4238;48.404;9.498;2023-02-11T08:26:15;32.07;;;20.70;;
8401;SDS011;4238;48.404;9.498;2023-02-11T08:28:44;26.37;;;19.13;;
8401;SDS011;4238;48.404;9.498;2023-02-11T08:31:12;47.10;;;28.00;;
8401;SDS011;4238;48.404;9.498;2023-02-11T08:33:42;28.40;;;21.20;;
8401;SDS011;4238;48.404;9.498;2023-02-11T08:36:09;29.27;;;20.87;;
8401;SDS011;4238;48.404;9.498;2023-02-11T08:38:37;33.37;;;24.33;;
8401;SDS011;4238;48.404;9.498;2023-02-11T08:41:04;56.23;;;37.67;;
8401;SDS011;4238;48.404;9.498;2023-02-11T08:43:33;56.20;;;39.33;;
8401;SDS011;4238;48.404;9.498;2023-02-11T08:46:00;48.77;;;32.03;;
8401;SDS011;4238;48.404;9.498;2023-02-11T08:48:27;44.43;;;29.70;;
8401;SDS011;4238;48.404;9.498;2023-02-11T08:50:55;43.83;;;32.20;;
8401;SDS011;4238;48.404;9.498;2023-02-11T08:53:22;25.30;;;17.77;;
8401;SDS011;4238;48.404;9.498;2023-02-11T08:55:50;25.57;;;18.20;;
8401;SDS011;4238;48.404;9.498;2023-02-11T08:58:18;27.63;;;17.73;;
8401;SDS011;4238;48.404;9.498;2023-02-11T09:00:47;25.00;;;16.37;;
8401;SDS011;4238;48.404;9.498;2023-02-11T09:03:15;27.97;;;19.23;;
8401;SDS011;4238;48.404;9.498;2023-02-11T09:05:43;27.63;;;19.33;;
8401;SDS011;4238;48.404;9.498;2023-02-11T09:08:11;29.53;;;20.53;;
8401;SDS011;4238;48.404;9.498;2023-02-11T09:10:38;27.27;;;19.40;;
8401;SDS011;4238;48.404;9.498;2023-02-11T09:13:06;24.90;;;18.27;;
8401;SDS011;4238;48.404;9.498;2023-02-11T09:15:33;25.30;;;17.77;;
8401;SDS011;4238;48.404;9.498;2023-02-11T09:18:02;26.33;;;19.50;;
8401;SDS011;4238;48.404;9.498;2023-02-11T09:20:29;27.97;;;18.00;;
8401;SDS011;4238;48.404;9.498;2023-02-11T09:22:57;28.87;;;18.63;;
8401;SDS011;4238;48.404;9.498;2023-02-11T09:25:25;25.50;;;19.37;;
8401;SDS011;4238;48.404;9.498;2023-02-11T09:27:52;30.83;;;19.83;;
8401;SDS011;4238;48.404;9.498;2023-02-11T09:30:18;27.10;;;18.57;;
8401;SDS011;4238;48.404;9.498;2023-02-11T09:32:45;27.77;;;17.63;;
8401;SDS011;4238;48.404;9.498;2023-02-11T09:35:14;23.70;;;15.53;;
8401;SDS011;4238;48.404;9.498;2023-02-11T09:37:41;20.17;;;15.30;;
8401;SDS011;4238;48.404;9.498;2023-02-11T09:40:08;25.83;;;18.03;;
8401;SDS011;4238;48.404;9.498;2023-02-11T09:42:40;21.13;;;18.53;;
8401;SDS011;4238;48.404;9.498;2023-02-11T09:45:12;19.90;;;16.37;;
8401;SDS011;4238;48.404;9.498;2023-02-11T09:47:47;25.50;;;18.10;;
8401;SDS011;4238;48.404;9.498;2023-02-11T09:50:18;22.37;;;17.13;;
8401;SDS011;4238;48.404;9.498;2023-02-11T09:52:54;24.20;;;17.73;;
8401;SDS011;4238;48.404;9.498;2023-02-11T09:55:26;23.90;;;16.40;;
8401;SDS011;4238;48.404;9.498;2023-02-11T09:57:55;23.47;;;15.70;;
8401;SDS011;4238;48.404;9.498;2023-02-11T10:00:24;17.57;;;14.40;;
8401;SDS011;4238;48.404;9.498;2023-02-11T10:03:13;17.23;;;14.67;;
8401;SDS011;4238;48.404;9.498;2023-02-11T10:06:13;23.47;;;19.63;;
8401;SDS011;4238;48.404;9.498;2023-02-11T10:09:01;16.27;;;11.53;;
8401;SDS011;4238;48.404;9.498;2023-02-11T10:11:39;12.93;;;11.57;;
8401;SDS011;4238;48.404;9.498;2023-02-11T10:14:20;8.00;;;6.83;;
8401;SDS011;4238;48.404;9.498;2023-02-11T10:17:02;6.20;;;5.40;;
8401;SDS011;4238;48.404;9.498;2023-02-11T10:19:42;5.20;;;4.40;;
8401;SDS011;4238;48.404;9.498;2023-02-11T10:22:21;5.57;;;4.27;;
8401;SDS011;4238;48.404;9.498;2023-02-11T10:24:51;5.83;;;3.93;;
8401;SDS011;4238;48.404;9.498;2023-02-11T10:27:23;5.50;;;4.53;;
8401;SDS011;4238;48.404;9.498;2023-02-11T10:29:56;4.73;;;4.40;;
8401;SDS011;4238;48.404;9.498;2023-02-11T10:32:29;5.37;;;4.87;;
8401;SDS011;4238;48.404;9.498;2023-02-11T10:35:02;5.13;;;4.63;;
8401;SDS011;4238;48.404;9.498;2023-02-11T10:37:36;5.67;;;4.80;;
8401;SDS011;4238;48.404;9.498;2023-02-11T10:40:05;7.00;;;5.07;;
8401;SDS011;4238;48.404;9.498;2023-02-11T10:42:32;4.73;;;4.17;;
8401;SDS011;4238;48.404;9.498;2023-02-11T10:45:01;5.53;;;4.90;;
8401;SDS011;4238;48.404;9.498;2023-02-11T10:47:32;4.90;;;4.43;;
8401;SDS011;4238;48.404;9.498;2023-02-11T10:50:07;4.60;;;4.20;;
8401;SDS011;4238;48.404;9.498;2023-02-11T10:52:45;4.47;;;4.07;;
8401;SDS011;4238;48.404;9.498;2023-02-11T10:55:14;4.90;;;4.43;;
8401;SDS011;4238;48.404;9.498;2023-02-11T10:57:48;4.63;;;4.00;;
8401;SDS011;4238;48.404;9.498;2023-02-11T11:00:19;5.67;;;4.50;;
8401;SDS011;4238;48.404;9.498;2023-02-11T11:02:53;9.70;;;8.40;;
8401;SDS011;4238;48.404;9.498;2023-02-11T11:05:24;6.13;;;5.40;;
8401;SDS011;4238;48.404;9.498;2023-02-11T11:07:57;6.87;;;6.27;;
8401;SDS011;4238;48.404;9.498;2023-02-11T11:10:36;7.20;;;6.27;;
8401;SDS011;4238;48.404;9.498;2023-02-11T11:13:22;6.27;;;5.67;;
8401;SDS011;4238;48.404;9.498;2023-02-11T11:18:51;7.93;;;6.10;;
8401;SDS011;4238;48.404;9.498;2023-02-11T11:21:20;7.00;;;6.23;;
8401;SDS011;4238;48.404;9.498;2023-02-11T11:23:51;6.57;;;5.80;;
8401;SDS011;4238;48.404;9.498;2023-02-11T11:26:20;6.43;;;5.70;;
8401;SDS011;4238;48.404;9.498;2023-02-11T11:28:49;6.43;;;5.63;;
8401;SDS011;4238;48.404;9.498;2023-02-11T11:31:23;6.10;;;5.50;;
8401;SDS011;4238;48.404;9.498;2023-02-11T11:33:53;7.77;;;6.40;;
8401;SDS011;4238;48.404;9.498;2023-02-11T11:36:24;5.40;;;4.90;;
8401;SDS011;4238;48.404;9.498;2023-02-11T11:39:01;6.00;;;4.93;;
8401;SDS011;4238;48.404;9.498;2023-02-11T11:41:39;6.47;;;5.87;;
8401;SDS011;4238;48.404;9.498;2023-02-11T11:44:20;7.10;;;5.73;;
8401;SDS011;4238;48.404;9.498;2023-02-11T11:46:52;5.50;;;5.00;;
8401;SDS011;4238;48.404;9.498;2023-02-11T11:49:50;6.47;;;5.87;;
8401;SDS011;4238;48.404;9.498;2023-02-11T11:52:32;6.03;;;5.43;;
8401;SDS011;4238;48.404;9.498;2023-02-11T11:55:09;5.00;;;4.50;;
8401;SDS011;4238;48.404;9.498;2023-02-11T11:57:42;5.80;;;5.15;;
8401;SDS011;4238;48.404;9.498;2023-02-11T12:00:13;4.70;;;4.38;;
8401;SDS011;4238;48.404;9.498;2023-02-11T12:02:49;5.07;;;4.68;;
8401;SDS011;4238;48.404;9.498;2023-02-11T12:05:33;5.22;;;4.35;;
8401;SDS011;4238;48.404;9.498;2023-02-11T12:08:09;5.15;;;4.65;;
8401;SDS011;4238;48.404;9.498;2023-02-11T12:10:46;5.55;;;5.00;;
8401;SDS011;4238;48.404;9.498;2023-02-11T12:13:27;4.60;;;4.20;;
8401;SDS011;4238;48.404;9.498;2023-02-11T12:16:02;4.43;;;4.05;;
8401;SDS011;4238;48.404;9.498;2023-02-11T12:18:44;6.15;;;5.55;;
8401;SDS011;4238;48.404;9.498;2023-02-11T12:21:23;4.55;;;4.15;;
8401;SDS011;4238;48.404;9.498;2023-02-11T12:24:14;6.95;;;4.80;;
8401;SDS011;4238;48.404;9.498;2023-02-11T12:26:55;5.70;;;4.90;;
8401;SDS011;4238;48.404;9.498;2023-02-11T12:29:30;4.57;;;4.18;;
8401;SDS011;4238;48.404;9.498;2023-02-11T12:32:09;6.03;;;4.80;;
8401;SDS011;4238;48.404;9.498;2023-02-11T12:34:55;13.38;;;10.15;;
8401;SDS011;4238;48.404;9.498;2023-02-11T12:37:36;8.27;;;7.20;;
8401;SDS011;4238;48.404;9.498;2023-02-11T12:40:13;6.25;;;5.07;;
8401;SDS011;4238;48.404;9.498;2023-02-11T12:42:48;4.88;;;4.43;;
8401;SDS011;4238;48.404;9.498;2023-02-11T12:45:39;5.20;;;4.73;;
8401;SDS011;4238;48.404;9.498;2023-02-11T12:48:17;8.87;;;5.23;;
8401;SDS011;4238;48.404;9.498;2023-02-11T12:50:59;4.82;;;4.43;;
8401;SDS011;4238;48.404;9.498;2023-02-11T12:53:35;5.40;;;4.90;;
8401;SDS011;4238;48.404;9.498;2023-02-11T12:56:16;6.80;;;4.40;;
8401;SDS011;4238;48.404;9.498;2023-02-11T12:58:49;6.10;;;5.50;;
8401;SDS011;4238;48.404;9.498;2023-02-11T13:01:19;5.33;;;4.83;;
8401;SDS011;4238;48.404;9.498;2023-02-11T13:03:52;4.57;;;3.80;;
8401;SDS011;4238;48.404;9.498;2023-02-11T13:06:23;5.83;;;4.53;;
8401;SDS011;4238;48.404;9.498;2023-02-11T13:08:58;5.10;;;4.60;;
8401;SDS011;4238;48.404;9.498;2023-02-11T13:11:28;4.30;;;4.00;;
8401;SDS011;4238;48.404;9.498;2023-02-11T13:14:03;4.53;;;4.07;;
8401;SDS011;4238;48.404;9.498;2023-02-11T13:16:35;4.53;;;4.07;;
8401;SDS011;4238;48.404;9.498;2023-02-11T13:19:06;5.00;;;3.90;;
8401;SDS011;4238;48.404;9.498;2023-02-11T13:21:46;5.30;;;4.80;;
8401;SDS011;4238;48.404;9.498;2023-02-11T13:24:24;6.40;;;5.20;;
8401;SDS011;4238;48.404;9.498;2023-02-11T13:27:00;5.10;;;4.47;;
8401;SDS011;4238;48.404;9.498;2023-02-11T13:29:39;6.20;;;4.67;;
8401;SDS011;4238;48.404;9.498;2023-02-11T13:32:39;4.67;;;4.27;;
8401;SDS011;4238;48.404;9.498;2023-02-11T13:35:29;5.27;;;4.73;;
8401;SDS011;4238;48.404;9.498;2023-02-11T13:37:57;5.33;;;4.90;;
8401;SDS011;4238;48.404;9.498;2023-02-11T13:40:26;6.10;;;5.50;;
8401;SDS011;4238;48.404;9.498;2023-02-11T13:42:55;6.17;;;5.57;;
8401;SDS011;4238;48.404;9.498;2023-02-11T13:45:28;8.07;;;5.60;;
8401;SDS011;4238;48.404;9.498;2023-02-11T13:47:57;5.97;;;5.37;;
8401;SDS011;4238;48.404;9.498;2023-02-11T13:50:24;6.20;;;5.20;;
8401;SDS011;4238;48.404;9.498;2023-02-11T13:52:56;7.13;;;5.80;;
8401;SDS011;4238;48.404;9.498;2023-02-11T13:55:25;7.33;;;5.60;;
8401;SDS011;4238;48.404;9.498;2023-02-11T14:00:53;5.37;;;4.87;;
8401;SDS011;4238;48.404;9.498;2023-02-11T14:03:30;6.50;;;5.87;;
8401;SDS011;4238;48.404;9.498;2023-02-11T14:06:23;8.27;;;6.17;;
8401;SDS011;4238;48.404;9.498;2023-02-11T14:09:37;7.23;;;6.50;;
8401;SDS011;4238;48.404;9.498;2023-02-11T14:15:19;7.50;;;6.27;;
8401;SDS011;4238;48.404;9.498;2023-02-11T14:17:49;9.60;;;6.37;;
8401;SDS011;4238;48.404;9.498;2023-02-11T14:20:33;8.90;;;7.97;;
8401;SDS011;4238;48.404;9.498;2023-02-11T14:23:06;17.27;;;11.53;;
8401;SDS011;4238;48.404;9.498;2023-02-11T14:25:50;8.40;;;7.50;;
8401;SDS011;4238;48.404;9.498;2023-02-11T14:28:24;9.87;;;8.20;;
8401;SDS011;4238;48.404;9.498;2023-02-11T14:30:57;10.93;;;8.37;;
8401;SDS011;4238;48.404;9.498;2023-02-11T14:33:42;17.13;;;13.03;;
8401;SDS011;4238;48.404;9.498;2023-02-11T14:39:20;10.13;;;7.73;;
8401;SDS011;4238;48.404;9.498;2023-02-11T14:41:54;10.30;;;9.30;;
8401;SDS011;4238;48.404;9.498;2023-02-11T14:44:22;9.27;;;7.83;;
8401;SDS011;4238;48.404;9.498;2023-02-11T14:46:52;10.30;;;8.60;;
8401;SDS011;4238;48.404;9.498;2023-02-11T14:49:22;13.47;;;9.60;;
8401;SDS011;4238;48.404;9.498;2023-02-11T14:51:53;14.07;;;9.87;;
8401;SDS011;4238;48.404;9.498;2023-02-11T14:54:23;12.43;;;9.37;;
8401;SDS011;4238;48.404;9.498;2023-02-11T14:57:05;12.27;;;9.57;;
8401;SDS011;4238;48.404;9.498;2023-02-11T14:59:35;11.17;;;9.03;;
8401;SDS011;4238;48.404;9.498;2023-02-11T15:02:02;13.17;;;9.90;;
8401;SDS011;4238;48.404;9.498;2023-02-11T15:04:46;12.07;;;10.20;;
8401;SDS011;4238;48.404;9.498;2023-02-11T15:07:13;12.50;;;10.23;;
8401;SDS011;4238;48.404;9.498;2023-02-11T15:09:43;12.07;;;9.87;;
8401;SDS011;4238;48.404;9.498;2023-02-11T15:12:14;13.50;;;10.37;;
8401;SDS011;4238;48.404;9.498;2023-02-11T15:14:47;13.47;;;10.00;;
8401;SDS011;4238;48.404;9.498;2023-02-11T15:17:18;12.50;;;10.43;;
8401;SDS011;4238;48.404;9.498;2023-02-11T15:19:50;13.93;;;10.30;;
8401;SDS011;4238;48.404;9.498;2023-02-11T15:22:20;13.10;;;10.30;;
8401;SDS011;4238;48.404;9.498;2023-02-11T15:27:38;11.73;;;10.07;;
8401;SDS011;4238;48.404;9.498;2023-02-11T15:30:22;9.87;;;8.87;;
8401;SDS011;4238;48.404;9.498;2023-02-11T15:32:55;12.83;;;9.93;;
8401;SDS011;4238;48.404;9.498;2023-02-11T15:35:26;12.27;;;9.80;;
8401;SDS011;4238;48.404;9.498;2023-02-11T15:37:54;11.53;;;8.87;;